createdAt,value
2023-04-09T00:01:11.138Z,5.70
2023-04-09T00:03:41.245Z,6.47
2023-04-09T00:06:12.764Z,6.17
2023-04-09T00:08:41.694Z,6.67
2023-04-09T00:11:08.527Z,5.13
2023-04-09T00:13:39.583Z,6.30
2023-04-09T00:16:07.854Z,6.60
2023-04-09T00:18:34.638Z,6.27
2023-04-09T00:21:04.005Z,6.87
2023-04-09T00:23:33.241Z,6.57
2023-04-09T00:26:07.884Z,5.67
2023-04-09T00:28:42.693Z,5.80
2023-04-09T00:31:14.884Z,6.67
2023-04-09T00:33:46.590Z,6.90
2023-04-09T00:36:16.118Z,6.00
2023-04-09T00:38:43.041Z,5.90
2023-04-09T00:41:14.618Z,5.90
2023-04-09T00:43:41.353Z,6.07
2023-04-09T00:46:10.498Z,7.00
2023-04-09T00:48:42.146Z,5.40
2023-04-09T00:51:14.247Z,6.10
2023-04-09T00:53:46.267Z,6.87
2023-04-09T00:56:17.179Z,6.83
2023-04-09T00:58:46.583Z,6.27
2023-04-09T01:01:17.931Z,6.50
2023-04-09T01:03:47.726Z,6.30
2023-04-09T01:06:39.023Z,6.70
2023-04-09T01:09:18.259Z,6.27
2023-04-09T01:12:21.451Z,6.13
2023-04-09T01:14:59.426Z,6.97
2023-04-09T01:17:36.117Z,6.83
2023-04-09T01:20:07.718Z,6.77
2023-04-09T01:23:02.818Z,6.50
2023-04-09T01:25:44.075Z,4.87
2023-04-09T01:28:46.004Z,5.73
2023-04-09T01:31:21.638Z,5.07
2023-04-09T01:33:52.752Z,6.50
2023-04-09T01:36:28.442Z,6.43
2023-04-09T01:39:05.983Z,5.80
2023-04-09T01:41:41.127Z,5.90
2023-04-09T01:44:12.151Z,5.80
2023-04-09T01:46:40.345Z,6.93
2023-04-09T01:49:12.699Z,6.73
2023-04-09T01:51:39.810Z,6.00
2023-04-09T01:54:08.805Z,5.90
2023-04-09T01:56:46.226Z,6.00
2023-04-09T01:59:18.394Z,5.80
2023-04-09T02:02:04.099Z,6.67
2023-04-09T02:04:35.744Z,6.50
2023-04-09T02:07:09.320Z,5.60
2023-04-09T02:09:46.430Z,6.40
2023-04-09T02:12:18.570Z,5.90
2023-04-09T02:14:47.356Z,6.10
2023-04-09T02:17:17.487Z,5.87
2023-04-09T02:19:48.331Z,5.83
2023-04-09T02:22:17.095Z,6.30
2023-04-09T02:24:43.976Z,6.90
2023-04-09T02:27:17.839Z,6.43
2023-04-09T02:29:50.538Z,5.57
2023-04-09T02:32:17.425Z,6.53
2023-04-09T02:34:48.811Z,7.30
2023-04-09T02:37:15.588Z,6.17
2023-04-09T02:39:44.705Z,5.80
2023-04-09T02:42:13.768Z,7.03
2023-04-09T02:44:44.433Z,7.10
2023-04-09T02:47:15.259Z,6.97
2023-04-09T02:49:46.756Z,6.23
2023-04-09T02:52:24.452Z,6.53
2023-04-09T02:54:53.531Z,7.20
2023-04-09T02:57:28.121Z,7.47
2023-04-09T02:59:55.749Z,6.30
2023-04-09T03:02:22.756Z,5.90
2023-04-09T03:04:56.872Z,7.00
2023-04-09T03:07:23.776Z,6.83
2023-04-09T03:09:55.311Z,7.50
2023-04-09T03:12:28.317Z,6.77
2023-04-09T03:14:59.989Z,6.67
2023-04-09T03:17:32.230Z,7.10
2023-04-09T03:20:03.776Z,6.80
2023-04-09T03:22:44.270Z,7.20
2023-04-09T03:25:31.953Z,6.13
2023-04-09T03:28:11.428Z,6.10
2023-04-09T03:30:50.758Z,6.30
2023-04-09T03:33:22.963Z,5.70
2023-04-09T03:36:01.875Z,7.10
2023-04-09T03:38:53.723Z,6.73
2023-04-09T03:41:31.689Z,6.47
2023-04-09T03:44:07.487Z,5.60
2023-04-09T03:46:47.193Z,6.00
2023-04-09T03:49:18.335Z,6.93
2023-04-09T03:51:50.020Z,7.10
2023-04-09T03:54:16.894Z,6.30
2023-04-09T03:56:47.027Z,7.33
2023-04-09T03:59:21.989Z,6.70
2023-04-09T04:01:53.763Z,6.80
2023-04-09T04:04:25.774Z,6.53
2023-04-09T04:06:56.514Z,6.80
2023-04-09T04:09:29.876Z,6.03
2023-04-09T04:12:19.599Z,7.70
2023-04-09T04:15:09.608Z,6.80
2023-04-09T04:17:44.425Z,6.40
2023-04-09T04:20:24.390Z,7.07
2023-04-09T04:23:02.800Z,6.50
2023-04-09T04:25:36.123Z,6.40
2023-04-09T04:28:05.838Z,6.80
2023-04-09T04:30:41.835Z,6.87
2023-04-09T04:33:13.709Z,7.10
2023-04-09T04:35:50.661Z,8.00
2023-04-09T04:38:38.364Z,7.90
2023-04-09T04:41:13.991Z,8.60
2023-04-09T04:43:48.356Z,7.77
2023-04-09T04:46:22.995Z,8.60
2023-04-09T04:48:54.740Z,7.67
2023-04-09T04:51:27.870Z,9.57
2023-04-09T04:54:05.083Z,8.47
2023-04-09T04:56:39.259Z,9.30
2023-04-09T04:59:26.524Z,8.40
2023-04-09T05:01:59.986Z,10.70
2023-04-09T05:04:32.744Z,13.30
2023-04-09T05:07:00.579Z,10.80
2023-04-09T05:09:32.255Z,9.07
2023-04-09T05:12:11.424Z,7.80
2023-04-09T05:14:41.708Z,8.10
2023-04-09T05:17:08.934Z,9.30
2023-04-09T05:19:43.031Z,8.70
2023-04-09T05:22:11.737Z,8.50
2023-04-09T05:24:41.728Z,9.13
2023-04-09T05:27:13.297Z,9.10
2023-04-09T05:29:43.349Z,8.17
2023-04-09T05:32:14.876Z,9.00
2023-04-09T05:34:41.791Z,7.40
2023-04-09T05:37:11.311Z,9.13
2023-04-09T05:39:46.557Z,10.10
2023-04-09T05:42:15.996Z,9.17
2023-04-09T05:45:03.910Z,8.50
2023-04-09T05:47:35.337Z,10.10
2023-04-09T05:50:17.087Z,9.53
2023-04-09T05:52:46.763Z,10.90
2023-04-09T05:55:14.897Z,11.03
2023-04-09T05:57:56.102Z,9.33
2023-04-09T06:00:25.229Z,13.70
2023-04-09T06:02:52.214Z,13.70
2023-04-09T06:05:24.577Z,10.80
2023-04-09T06:07:56.756Z,12.80
2023-04-09T06:10:29.189Z,12.07
2023-04-09T06:13:00.992Z,13.47
2023-04-09T06:15:35.333Z,12.67
2023-04-09T06:18:07.480Z,10.67
2023-04-09T06:20:34.228Z,10.70
2023-04-09T06:23:01.048Z,13.57
2023-04-09T06:25:27.894Z,9.90
2023-04-09T06:27:59.515Z,10.40
2023-04-09T06:30:34.095Z,13.03
2023-04-09T06:33:03.176Z,12.27
2023-04-09T06:35:32.379Z,13.50
2023-04-09T06:38:01.506Z,10.80
2023-04-09T06:40:35.440Z,10.00
2023-04-09T06:43:06.105Z,9.33
2023-04-09T06:45:52.406Z,7.60
2023-04-09T06:48:21.721Z,7.10
2023-04-09T06:50:53.012Z,8.33
2023-04-09T06:53:20.241Z,7.57
2023-04-09T06:55:51.865Z,6.17
2023-04-09T06:58:18.600Z,7.10
2023-04-09T07:00:47.879Z,9.30
2023-04-09T07:03:19.510Z,6.80
2023-04-09T07:05:49.411Z,8.60
2023-04-09T07:08:23.613Z,8.23
2023-04-09T07:10:52.735Z,7.30
2023-04-09T07:13:22.687Z,8.40
2023-04-09T07:15:52.014Z,9.23
2023-04-09T07:18:21.095Z,8.77
2023-04-09T07:20:50.138Z,8.20
2023-04-09T07:23:19.595Z,7.73
2023-04-09T07:25:48.756Z,6.80
2023-04-09T07:28:18.143Z,7.37
2023-04-09T07:30:46.415Z,7.63
2023-04-09T07:33:21.118Z,9.90
2023-04-09T07:35:47.945Z,8.50
2023-04-09T07:38:19.500Z,10.20
2023-04-09T07:40:46.351Z,8.53
2023-04-09T07:43:17.574Z,9.73
2023-04-09T07:45:56.019Z,8.30
2023-04-09T07:48:25.070Z,7.67
2023-04-09T07:50:51.872Z,8.50
2023-04-09T07:53:23.529Z,7.30
2023-04-09T07:55:55.183Z,6.43
2023-04-09T07:58:26.515Z,8.90
2023-04-09T08:00:55.781Z,8.00
2023-04-09T08:03:30.325Z,8.10
2023-04-09T08:06:03.959Z,8.13
2023-04-09T08:08:36.156Z,8.87
2023-04-09T08:11:07.820Z,9.23
2023-04-09T08:13:36.878Z,7.40
2023-04-09T08:16:10.810Z,9.30
2023-04-09T08:18:39.944Z,9.20
2023-04-09T08:21:11.701Z,9.50
2023-04-09T08:23:40.572Z,10.73
2023-04-09T08:26:12.251Z,8.10
2023-04-09T08:28:43.683Z,8.80
2023-04-09T08:31:13.643Z,11.00
2023-04-09T08:33:43.050Z,9.13
2023-04-09T08:36:16.282Z,9.07
2023-04-09T08:38:50.511Z,9.77
2023-04-09T08:41:26.324Z,9.10
2023-04-09T08:43:58.792Z,11.57
2023-04-09T08:46:29.038Z,12.10
2023-04-09T08:48:58.220Z,10.07
2023-04-09T08:51:29.854Z,11.33
2023-04-09T08:54:04.747Z,9.30
2023-04-09T08:56:34.337Z,10.70
2023-04-09T08:59:05.913Z,10.30
2023-04-09T09:01:40.678Z,13.00
2023-04-09T09:04:11.684Z,12.73
2023-04-09T09:06:43.196Z,12.40
2023-04-09T09:09:17.177Z,11.80
2023-04-09T09:11:52.544Z,10.60
2023-04-09T09:14:23.845Z,11.13
2023-04-09T09:16:56.886Z,10.17
2023-04-09T09:19:26.389Z,12.30
2023-04-09T09:22:11.151Z,11.40
2023-04-09T09:24:53.870Z,10.90
2023-04-09T09:27:41.818Z,8.43
2023-04-09T09:30:32.633Z,11.43
2023-04-09T09:33:10.819Z,10.67
2023-04-09T09:35:54.410Z,13.70
2023-04-09T09:38:21.697Z,11.43
2023-04-09T09:40:49.731Z,9.13
2023-04-09T09:43:16.651Z,11.27
2023-04-09T09:45:46.768Z,11.50
2023-04-09T09:48:20.716Z,10.50
2023-04-09T09:50:54.998Z,14.00
2023-04-09T09:53:27.692Z,9.60
2023-04-09T09:55:59.692Z,12.43
2023-04-09T09:58:36.977Z,10.10
2023-04-09T10:01:12.159Z,10.60
2023-04-09T10:03:44.630Z,8.87
2023-04-09T10:06:16.986Z,11.03
2023-04-09T10:08:44.527Z,12.00
2023-04-09T10:11:13.515Z,12.20
2023-04-09T10:13:56.808Z,12.60
2023-04-09T10:16:29.250Z,12.37
2023-04-09T10:19:01.790Z,10.53
2023-04-09T10:22:01.819Z,11.07
2023-04-09T10:24:28.621Z,9.70
2023-04-09T10:27:09.199Z,11.13
2023-04-09T10:29:45.856Z,11.90
2023-04-09T10:32:16.154Z,10.03
2023-04-09T10:34:46.216Z,9.73
2023-04-09T10:37:22.863Z,10.87
2023-04-09T10:39:51.772Z,13.67
2023-04-09T10:42:45.522Z,12.97
2023-04-09T10:45:21.907Z,11.30
2023-04-09T10:47:51.852Z,12.77
2023-04-09T10:50:32.677Z,13.57
2023-04-09T10:53:00.944Z,15.10
2023-04-09T10:55:44.676Z,15.20
2023-04-09T10:58:16.355Z,14.63
2023-04-09T11:00:45.603Z,14.90
2023-04-09T11:03:25.293Z,12.50
2023-04-09T11:05:58.890Z,16.90
2023-04-09T11:08:30.286Z,16.97
2023-04-09T11:11:01.720Z,15.27
2023-04-09T11:13:35.257Z,12.10
2023-04-09T11:16:11.338Z,13.73
2023-04-09T11:18:43.681Z,12.87
2023-04-09T11:21:19.816Z,14.00
2023-04-09T11:23:53.199Z,13.40
2023-04-09T11:26:36.144Z,12.93
2023-04-09T11:29:09.441Z,14.43
2023-04-09T11:31:37.003Z,14.00
2023-04-09T11:34:08.192Z,11.60
2023-04-09T11:36:38.390Z,13.90
2023-04-09T11:39:12.434Z,16.03
2023-04-09T11:41:39.380Z,13.87
2023-04-09T11:44:13.460Z,13.97
2023-04-09T11:46:41.490Z,13.53
2023-04-09T11:49:08.957Z,14.10
2023-04-09T11:51:38.817Z,14.20
2023-04-09T11:54:10.429Z,14.10
2023-04-09T11:56:43.149Z,16.87
2023-04-09T11:59:15.522Z,12.20
2023-04-09T12:01:53.747Z,12.03
2023-04-09T12:04:26.673Z,13.63
2023-04-09T12:07:00.972Z,12.00
2023-04-09T12:09:32.948Z,12.87
2023-04-09T12:12:02.607Z,12.87
2023-04-09T12:14:31.755Z,10.60
2023-04-09T12:17:01.601Z,11.47
2023-04-09T12:19:36.652Z,13.57
2023-04-09T12:22:03.469Z,12.30
2023-04-09T12:24:34.985Z,10.53
2023-04-09T12:27:04.405Z,10.50
2023-04-09T12:29:33.954Z,9.67
2023-04-09T12:32:08.899Z,10.63
2023-04-09T12:34:38.092Z,14.43
2023-04-09T12:37:07.373Z,15.07
2023-04-09T12:39:41.866Z,15.20
2023-04-09T12:42:15.694Z,33.57
2023-04-09T12:44:45.159Z,16.40
2023-04-09T12:47:12.603Z,11.90
2023-04-09T12:49:42.220Z,10.10
2023-04-09T12:52:11.428Z,11.30
2023-04-09T12:54:42.835Z,14.70
2023-04-09T12:57:14.589Z,11.93
2023-04-09T12:59:44.356Z,13.77
2023-04-09T13:02:18.871Z,14.10
2023-04-09T13:04:51.263Z,12.10
2023-04-09T13:07:22.909Z,10.83
2023-04-09T13:09:52.586Z,14.27
2023-04-09T13:12:21.703Z,11.80
2023-04-09T13:14:48.856Z,13.60
2023-04-09T13:17:18.685Z,13.90
2023-04-09T13:19:46.192Z,13.87
2023-04-09T13:22:17.467Z,12.40
2023-04-09T13:24:44.305Z,12.73
2023-04-09T13:27:18.980Z,13.50
2023-04-09T13:29:45.849Z,15.37
2023-04-09T13:32:14.928Z,12.20
2023-04-09T13:34:51.383Z,12.33
2023-04-09T13:37:20.866Z,10.07
2023-04-09T13:39:51.261Z,10.30
2023-04-09T13:42:20.418Z,13.10
2023-04-09T13:44:49.865Z,10.80
2023-04-09T13:47:19.035Z,13.30
2023-04-09T13:49:47.924Z,13.10
2023-04-09T13:52:14.726Z,14.73
2023-04-09T13:54:43.759Z,11.37
2023-04-09T13:57:17.588Z,12.30
2023-04-09T13:59:49.827Z,9.67
2023-04-09T14:02:19.626Z,8.73
2023-04-09T14:04:51.438Z,9.60
2023-04-09T14:07:20.733Z,7.17
2023-04-09T14:09:47.581Z,9.70
2023-04-09T14:12:16.684Z,8.23
2023-04-09T14:14:49.153Z,8.23
2023-04-09T14:17:21.046Z,12.47
2023-04-09T14:19:47.873Z,9.80
2023-04-09T14:22:19.461Z,11.57
2023-04-09T14:24:48.859Z,6.80
2023-04-09T14:27:20.707Z,6.90
2023-04-09T14:29:53.437Z,8.67
2023-04-09T14:32:25.580Z,12.30
2023-04-09T14:34:57.256Z,11.87
2023-04-09T14:37:24.048Z,10.47
2023-04-09T14:39:53.228Z,8.77
2023-04-09T14:42:25.518Z,12.90
2023-04-09T14:44:55.500Z,9.87
2023-04-09T14:47:27.164Z,9.20
2023-04-09T14:49:53.993Z,9.10
2023-04-09T14:52:23.437Z,10.87
2023-04-09T14:54:55.548Z,10.27
2023-04-09T14:57:27.320Z,8.73
2023-04-09T14:59:56.655Z,8.87
2023-04-09T15:02:23.637Z,9.60
2023-04-09T15:04:55.503Z,9.40
2023-04-09T15:07:24.947Z,8.27
2023-04-09T15:09:54.649Z,7.67
2023-04-09T15:12:23.858Z,8.23
2023-04-09T15:14:58.535Z,7.87
2023-04-09T15:17:29.238Z,7.60
2023-04-09T15:19:58.918Z,7.20
2023-04-09T15:22:33.035Z,8.23
2023-04-09T15:25:04.624Z,5.77
2023-04-09T15:27:33.479Z,7.13
2023-04-09T15:30:05.925Z,7.80
2023-04-09T15:32:35.244Z,8.00
2023-04-09T15:35:02.106Z,7.80
2023-04-09T15:37:31.302Z,9.87
2023-04-09T15:39:58.132Z,8.80
2023-04-09T15:42:29.738Z,9.10
2023-04-09T15:44:59.151Z,7.50
2023-04-09T15:47:25.902Z,6.40
2023-04-09T15:49:56.122Z,6.87
2023-04-09T15:52:22.965Z,6.77
2023-04-09T15:54:49.712Z,5.67
2023-04-09T15:57:19.544Z,6.60
2023-04-09T15:59:50.917Z,6.30
2023-04-09T16:02:20.780Z,7.90
2023-04-09T16:04:50.284Z,5.90
2023-04-09T16:07:21.655Z,6.37
2023-04-09T16:09:53.233Z,7.53
2023-04-09T16:12:23.466Z,7.40
2023-04-09T16:14:50.333Z,6.10
2023-04-09T16:17:25.073Z,7.30
2023-04-09T16:19:54.311Z,6.40
2023-04-09T16:22:23.566Z,5.83
2023-04-09T16:24:52.697Z,6.17
2023-04-09T16:27:24.338Z,7.40
2023-04-09T16:29:56.286Z,6.03
2023-04-09T16:32:30.473Z,5.73
2023-04-09T16:35:00.949Z,6.77
2023-04-09T16:37:31.337Z,5.97
2023-04-09T16:40:00.806Z,6.50
2023-04-09T16:42:30.598Z,6.70
2023-04-09T16:44:59.623Z,5.30
2023-04-09T16:47:34.274Z,6.13
2023-04-09T16:50:04.290Z,5.40
2023-04-09T16:52:37.009Z,5.50
2023-04-09T16:55:10.523Z,5.80
2023-04-09T16:57:42.398Z,5.80
2023-04-09T17:00:10.216Z,4.80
2023-04-09T17:02:37.397Z,4.93
2023-04-09T17:05:04.591Z,5.80
2023-04-09T17:07:36.108Z,5.57
2023-04-09T17:10:11.028Z,5.40
2023-04-09T17:12:44.378Z,5.60
2023-04-09T17:15:11.543Z,5.80
2023-04-09T17:17:47.980Z,4.90
2023-04-09T17:20:19.551Z,4.57
2023-04-09T17:22:54.414Z,5.50
2023-04-09T17:25:26.361Z,4.93
2023-04-09T17:27:56.153Z,4.40
2023-04-09T17:30:25.937Z,5.23
2023-04-09T17:32:57.588Z,4.00
2023-04-09T17:35:26.685Z,4.80
2023-04-09T17:37:53.679Z,4.83
2023-04-09T17:40:23.134Z,4.60
2023-04-09T17:42:54.649Z,4.17
2023-04-09T17:45:23.756Z,5.27
2023-04-09T17:47:51.325Z,4.90
2023-04-09T17:50:22.514Z,4.50
2023-04-09T17:52:54.166Z,5.20
2023-04-09T17:55:24.003Z,5.20
2023-04-09T17:57:52.992Z,4.60
2023-04-09T18:00:24.609Z,5.03
2023-04-09T18:02:54.198Z,4.13
2023-04-09T18:05:23.799Z,4.40
2023-04-09T18:07:56.904Z,4.60
2023-04-09T18:10:26.298Z,4.07
2023-04-09T18:12:56.128Z,4.07
2023-04-09T18:15:22.929Z,4.97
2023-04-09T18:17:54.468Z,4.40
2023-04-09T18:20:23.744Z,4.20
2023-04-09T18:22:50.601Z,3.90
2023-04-09T18:25:23.400Z,4.40
2023-04-09T18:27:50.303Z,4.07
2023-04-09T18:30:21.894Z,5.30
2023-04-09T18:32:53.409Z,7.17
2023-04-09T18:35:22.858Z,7.67
2023-04-09T18:37:49.677Z,6.33
2023-04-09T18:40:17.979Z,5.20
2023-04-09T18:42:49.384Z,5.93
2023-04-09T18:45:16.145Z,5.53
2023-04-09T18:47:48.093Z,5.60
2023-04-09T18:50:20.084Z,5.70
2023-04-09T18:52:46.978Z,5.20
2023-04-09T18:55:16.967Z,4.90
2023-04-09T18:57:46.217Z,4.80
2023-04-09T19:00:15.688Z,6.23
2023-04-09T19:02:45.254Z,5.07
2023-04-09T19:05:17.758Z,6.60
2023-04-09T19:07:49.774Z,5.30
2023-04-09T19:10:16.718Z,5.80
2023-04-09T19:12:53.835Z,5.80
2023-04-09T19:15:29.492Z,6.13
2023-04-09T19:18:03.273Z,5.23
2023-04-09T19:20:30.167Z,5.80
2023-04-09T19:22:57.593Z,5.87
2023-04-09T19:25:31.542Z,5.70
2023-04-09T19:28:00.740Z,4.67
2023-04-09T19:30:30.092Z,3.90
2023-04-09T19:33:01.682Z,5.50
2023-04-09T19:35:40.618Z,5.70
2023-04-09T19:38:09.891Z,5.47
2023-04-09T19:40:36.794Z,5.60
2023-04-09T19:43:10.732Z,5.90
2023-04-09T19:45:42.781Z,6.73
2023-04-09T19:48:14.435Z,6.47
2023-04-09T19:50:46.396Z,5.63
2023-04-09T19:53:13.324Z,5.40
2023-04-09T19:55:42.412Z,6.03
2023-04-09T19:58:14.217Z,6.00
2023-04-09T20:00:41.261Z,5.20
2023-04-09T20:03:10.720Z,6.43
2023-04-09T20:05:37.584Z,7.03
2023-04-09T20:08:04.858Z,6.03
2023-04-09T20:10:31.742Z,6.20
2023-04-09T20:12:58.591Z,6.33
2023-04-09T20:15:27.663Z,6.63
2023-04-09T20:17:57.561Z,6.17
2023-04-09T20:20:32.174Z,8.83
2023-04-09T20:23:01.991Z,7.87
2023-04-09T20:25:35.031Z,8.50
2023-04-09T20:28:06.606Z,7.33
2023-04-09T20:30:38.390Z,6.37
2023-04-09T20:33:10.038Z,6.60
2023-04-09T20:35:39.361Z,6.57
2023-04-09T20:38:11.276Z,6.80
2023-04-09T20:40:38.098Z,8.00
2023-04-09T20:43:07.400Z,8.33
2023-04-09T20:45:34.261Z,8.07
2023-04-09T20:48:01.730Z,7.20
2023-04-09T20:50:33.385Z,7.50
2023-04-09T20:53:05.211Z,7.90
2023-04-09T20:55:35.851Z,7.07
2023-04-09T20:58:03.112Z,7.60
2023-04-09T21:00:32.974Z,6.47
2023-04-09T21:03:04.717Z,7.80
2023-04-09T21:05:36.437Z,8.10
2023-04-09T21:08:05.919Z,6.80
2023-04-09T21:10:35.179Z,8.33
2023-04-09T21:13:04.463Z,7.20
2023-04-09T21:15:31.311Z,9.30
2023-04-09T21:18:03.151Z,8.53
2023-04-09T21:20:30.565Z,8.60
2023-04-09T21:22:59.848Z,8.13
2023-04-09T21:25:29.805Z,8.80
2023-04-09T21:27:59.437Z,7.60
2023-04-09T21:30:32.403Z,8.03
2023-04-09T21:33:02.506Z,7.07
2023-04-09T21:35:37.305Z,6.77
2023-04-09T21:38:09.128Z,6.80
2023-04-09T21:40:38.454Z,7.10
2023-04-09T21:43:11.002Z,7.30
2023-04-09T21:45:40.831Z,6.80
2023-04-09T21:48:12.558Z,7.30
2023-04-09T21:50:44.120Z,7.43
2023-04-09T21:53:14.110Z,8.30
2023-04-09T21:55:40.927Z,8.40
2023-04-09T21:58:14.994Z,7.77
2023-04-09T22:00:49.581Z,7.20
2023-04-09T22:03:16.713Z,6.70
2023-04-09T22:05:47.942Z,8.00
2023-04-09T22:08:18.545Z,6.47
2023-04-09T22:10:50.412Z,7.73
2023-04-09T22:13:19.840Z,8.13
2023-04-09T22:15:51.223Z,7.90
2023-04-09T22:18:21.000Z,6.17
2023-04-09T22:20:50.101Z,7.20
2023-04-09T22:23:19.365Z,6.60
2023-04-09T22:25:48.620Z,7.30
2023-04-09T22:28:18.860Z,7.80
2023-04-09T22:30:50.736Z,7.47
2023-04-09T22:33:24.642Z,6.93
2023-04-09T22:35:57.283Z,7.57
2023-04-09T22:38:26.756Z,6.47
2023-04-09T22:40:53.600Z,7.50
2023-04-09T22:43:24.947Z,7.70
2023-04-09T22:45:54.551Z,7.50
2023-04-09T22:48:26.144Z,9.20
2023-04-09T22:50:57.974Z,8.90
2023-04-09T22:53:29.774Z,6.77
2023-04-09T22:56:02.317Z,8.13
2023-04-09T22:58:29.196Z,7.70
2023-04-09T23:01:03.240Z,6.77
2023-04-09T23:03:30.503Z,7.00
2023-04-09T23:06:03.326Z,7.07
2023-04-09T23:08:30.121Z,7.80
2023-04-09T23:10:57.462Z,7.47
2023-04-09T23:13:26.618Z,8.53
2023-04-09T23:15:55.960Z,7.27
2023-04-09T23:18:23.166Z,8.10
2023-04-09T23:20:55.132Z,8.27
2023-04-09T23:23:24.429Z,7.63
2023-04-09T23:25:53.938Z,7.67
2023-04-09T23:28:25.929Z,7.87
2023-04-09T23:30:55.137Z,9.10
2023-04-09T23:33:24.365Z,7.63
2023-04-09T23:35:53.684Z,7.07
2023-04-09T23:38:25.341Z,7.83
2023-04-09T23:40:54.579Z,7.67
2023-04-09T23:43:24.567Z,7.80
2023-04-09T23:45:51.595Z,7.17
2023-04-09T23:48:18.429Z,7.60
2023-04-09T23:50:45.233Z,7.30
2023-04-09T23:53:12.018Z,8.07
2023-04-09T23:55:42.625Z,8.17
2023-04-09T23:58:11.871Z,8.57
